Time;durP1;ratioP1;P1;durP2;ratioP2;P2;SDS_P1;SDS_P2;PMS_P1;PMS_P2;Temp;Humidity;BMP_temperature;BMP_pressure;BME280_temperature;BME280_humidity;BME280_pressure;Samples;Min_cycle;Max_cycle;Signal;HPM_P1;HPM_P2
2023/11/11 00:00:56;;;;;;;5.00;0.90;;;;;;;;;;5111295;28;20031;-72
2023/11/11 00:04:01;;;;;;;9.60;1.65;;;;;;;;;;5111107;28;20047;-72
2023/11/11 00:07:05;;;;;;;3.85;0.73;;;;;;;;;;5110797;28;20040;-72
2023/11/11 00:10:11;;;;;;;6.90;1.00;;;;;;;;;;5111281;28;20035;-72
2023/11/11 00:13:16;;;;;;;2.78;1.00;;;;;;;;;;5110874;28;20032;-72
2023/11/11 00:16:20;;;;;;;5.60;1.02;;;;;;;;;;5114512;28;20043;-72
2023/11/11 00:19:29;;;;;;;7.03;1.00;;;;;;;;;;5114982;28;20027;-73
2023/11/11 00:22:33;;;;;;;6.32;1.45;;;;;;;;;;5114868;28;20475;-73
2023/11/11 00:25:38;;;;;;;8.80;1.50;;;;;;;;;;5114779;28;20043;-72
2023/11/11 00:28:43;;;;;;;11.07;1.20;;;;;;;;;;5114593;28;20036;-71
2023/11/11 00:31:47;;;;;;;5.13;1.10;;;;;;;;;;5113351;28;20055;-71
2023/11/11 00:34:53;;;;;;;7.38;1.20;;;;;;;;;;5114589;28;20040;-71
2023/11/11 00:37:57;;;;;;;6.65;1.25;;;;;;;;;;5113776;28;20036;-71
2023/11/11 00:41:03;;;;;;;12.32;1.55;;;;;;;;;;5114274;28;20023;-71
2023/11/11 00:44:09;;;;;;;8.07;0.90;;;;;;;;;;5113285;28;20054;-71
2023/11/11 00:47:17;;;;;;;8.40;0.85;;;;;;;;;;5113232;28;20036;-71
2023/11/11 00:50:21;;;;;;;5.63;1.00;;;;;;;;;;5114275;28;20039;-71
2023/11/11 00:53:27;;;;;;;6.85;1.20;;;;;;;;;;5113510;28;20644;-71
2023/11/11 00:56:31;;;;;;;6.32;1.00;;;;;;;;;;5114171;28;20499;-73
2023/11/11 00:59:35;;;;;;;8.55;1.55;;;;;;;;;;5113045;28;20036;-72
2023/11/11 01:02:40;;;;;;;3.40;0.90;;;;;;;;;;5112934;28;20487;-72
2023/11/11 01:05:45;;;;;;;4.40;0.85;;;;;;;;;;5112869;28;20585;-72
2023/11/11 01:08:50;;;;;;;11.07;1.13;;;;;;;;;;5114037;28;20027;-72
2023/11/11 01:11:54;;;;;;;8.52;2.38;;;;;;;;;;5113847;28;20043;-72
2023/11/11 01:14:58;;;;;;;7.93;1.33;;;;;;;;;;5113492;28;20032;-72
2023/11/11 01:18:03;;;;;;;9.43;1.67;;;;;;;;;;5113712;28;20385;-72
2023/11/11 01:21:07;;;;;;;5.32;1.13;;;;;;;;;;5113474;28;20040;-72
2023/11/11 01:24:12;;;;;;;16.55;2.05;;;;;;;;;;5113394;28;20043;-72
2023/11/11 01:27:18;;;;;;;9.93;1.50;;;;;;;;;;5100500;28;20387;-72
2023/11/11 01:30:22;;;;;;;15.70;2.30;;;;;;;;;;5113090;28;20035;-72
2023/11/11 01:33:27;;;;;;;12.07;2.00;;;;;;;;;;5113183;28;20051;-72
2023/11/11 01:36:32;;;;;;;8.52;1.65;;;;;;;;;;5112304;28;20397;-72
2023/11/11 01:39:37;;;;;;;15.90;2.40;;;;;;;;;;5113305;28;20035;-73
2023/11/11 01:42:41;;;;;;;12.50;1.65;;;;;;;;;;5112160;28;20046;-72
2023/11/11 01:45:46;;;;;;;17.80;2.67;;;;;;;;;;5113120;28;20059;-72
2023/11/11 01:48:50;;;;;;;9.25;1.63;;;;;;;;;;5112452;28;20046;-72
2023/11/11 01:51:54;;;;;;;12.82;2.03;;;;;;;;;;5113242;28;20511;-72
2023/11/11 01:55:01;;;;;;;8.93;1.60;;;;;;;;;;5112942;28;20042;-73
2023/11/11 01:58:06;;;;;;;10.43;1.98;;;;;;;;;;5111959;28;20036;-72
2023/11/11 02:01:12;;;;;;;11.63;2.17;;;;;;;;;;5112961;28;20038;-72
2023/11/11 02:04:17;;;;;;;19.83;2.35;;;;;;;;;;5112683;28;20403;-71
2023/11/11 02:07:22;;;;;;;7.97;1.75;;;;;;;;;;5112484;28;20062;-72
2023/11/11 02:10:26;;;;;;;12.40;2.53;;;;;;;;;;5111752;28;20040;-72
2023/11/11 02:13:34;;;;;;;14.60;2.40;;;;;;;;;;5114722;28;20043;-73
2023/11/11 02:16:39;;;;;;;15.43;2.65;;;;;;;;;;5115980;28;20039;-72
2023/11/11 02:19:43;;;;;;;14.20;2.55;;;;;;;;;;5112579;28;20043;-73
2023/11/11 02:22:48;;;;;;;16.50;1.90;;;;;;;;;;5112584;28;20063;-72
2023/11/11 02:25:55;;;;;;;13.80;2.55;;;;;;;;;;5112776;28;20038;-72
2023/11/11 02:28:59;;;;;;;9.43;2.33;;;;;;;;;;5112579;28;20066;-73
2023/11/11 02:32:04;;;;;;;20.83;3.08;;;;;;;;;;5111982;28;20392;-72
2023/11/11 02:35:08;;;;;;;20.33;2.85;;;;;;;;;;5111351;28;20042;-72
2023/11/11 02:38:13;;;;;;;13.55;2.42;;;;;;;;;;5111369;28;20051;-72
2023/11/11 02:41:17;;;;;;;18.42;2.95;;;;;;;;;;5112042;28;20043;-72
2023/11/11 02:44:21;;;;;;;16.02;2.83;;;;;;;;;;5111059;28;20047;-72
2023/11/11 02:47:25;;;;;;;19.05;2.42;;;;;;;;;;5110877;28;20047;-73
2023/11/11 02:50:30;;;;;;;21.80;2.25;;;;;;;;;;5111910;28;20047;-73
2023/11/11 02:53:34;;;;;;;18.98;3.45;;;;;;;;;;5111165;28;20379;-72
2023/11/11 02:56:41;;;;;;;7.70;2.00;;;14.80;99.90;;;;;;5111403;28;20051;-72
2023/11/11 02:59:45;;;;;;;16.50;2.47;;;;;;;;;;5111164;28;20395;-72
2023/11/11 03:02:50;;;;;;;21.92;2.88;;;;;;;;;;5110804;28;20110;-73
2023/11/11 03:05:54;;;;;;;23.40;3.63;;;;;;;;;;5111605;28;20046;-72
2023/11/11 03:08:58;;;;;;;16.75;2.33;;;;;;;;;;5111586;28;20038;-72
2023/11/11 03:12:03;;;;;;;32.30;4.63;;;;;;;;;;5110910;28;20047;-72
2023/11/11 03:15:07;;;;;;;18.88;2.65;;;;;;;;;;5110820;28;20036;-72
2023/11/11 03:18:11;;;;;;;13.45;2.60;;;;;;;;;;5111752;28;20046;-72
2023/11/11 03:21:22;;;;;;;19.00;2.50;;;;;;;;;;5111699;28;20043;-73
2023/11/11 03:24:26;;;;;;;17.92;2.55;;;;;;;;;;5112430;28;20051;-72
2023/11/11 03:27:30;;;;;;;23.73;3.63;;;;;;;;;;5112221;28;20039;-71
2023/11/11 03:30:35;;;;;;;25.30;2.42;;;;;;;;;;5112231;28;20055;-71
2023/11/11 03:33:40;;;;;;;13.82;2.28;;;;;;;;;;5111208;28;20050;-72
2023/11/11 03:36:44;;;;;;;19.65;2.47;;;;;;;;;;5111750;28;20070;-72
2023/11/11 03:39:49;;;;;;;16.23;2.40;;;;;;;;;;5112268;28;20039;-72
2023/11/11 03:42:53;;;;;;;16.65;2.40;;;;;;;;;;5111897;28;20042;-71
2023/11/11 03:45:59;;;;;;;21.25;3.05;;;;;;;;;;5112019;28;20114;-72
2023/11/11 03:49:03;;;;;;;18.60;2.53;;;;;;;;;;5112464;28;20047;-72
2023/11/11 03:52:09;;;;;;;14.48;2.25;;;;;;;;;;5115721;28;20043;-71
2023/11/11 03:55:13;;;;;;;15.77;2.72;;;;;;;;;;5114631;28;20058;-72
2023/11/11 03:58:18;;;;;;;21.10;2.55;;;;;;;;;;5115101;28;20042;-71
2023/11/11 04:01:22;;;;;;;13.95;2.70;;;;;;;;;;5115285;28;20048;-72
2023/11/11 04:04:26;;;;;;;17.65;2.80;;;;;;;;;;5114782;28;20047;-72
2023/11/11 04:07:31;;;;;;;13.18;1.95;;;;;;;;;;5113904;28;20039;-72
2023/11/11 04:10:36;;;;;;;16.77;3.63;;;;;;;;;;5114054;28;20047;-73
2023/11/11 04:13:41;;;;;;;11.75;2.50;;;;;;;;;;5114024;28;20042;-72
2023/11/11 04:16:45;;;;;;;18.35;3.30;;;14.60;99.90;;;;;;5114862;28;20516;-73
2023/11/11 04:19:50;;;;;;;10.65;2.72;;;;;;;;;;5113959;28;20042;-73
2023/11/11 04:22:54;;;;;;;19.08;2.45;;;;;;;;;;5113616;28;20038;-72
2023/11/11 04:26:00;;;;;;;16.52;2.20;;;;;;;;;;5113972;28;20471;-72
2023/11/11 04:29:05;;;;;;;12.68;2.50;;;;;;;;;;5114597;28;20406;-72
2023/11/11 04:32:09;;;;;;;15.95;2.55;;;;;;;;;;5114198;28;20078;-72
2023/11/11 04:35:17;;;;;;;9.75;2.38;;;;;;;;;;5114225;28;20106;-73
2023/11/11 04:38:22;;;;;;;14.68;2.40;;;;;;;;;;5114419;28;20040;-72
2023/11/11 04:41:27;;;;;;;17.35;3.08;;;;;;;;;;5113459;28;20042;-71
2023/11/11 04:44:31;;;;;;;10.57;1.98;;;;;;;;;;5113942;28;20542;-72
2023/11/11 04:47:36;;;;;;;20.33;3.45;;;;;;;;;;5114478;28;20046;-72
2023/11/11 04:50:40;;;;;;;11.60;3.03;;;;;;;;;;5113236;28;20415;-71
2023/11/11 04:53:44;;;;;;;13.63;2.55;;;;;;;;;;5114072;28;20049;-72
2023/11/11 04:56:49;;;;;;;15.48;2.83;;;;;;;;;;5113712;28;20038;-72
2023/11/11 04:59:53;;;;;;;12.57;2.30;;;;;;;;;;5113640;28;20105;-72
2023/11/11 05:03:00;;;;;;;15.23;2.08;;;;;;;;;;5113782;28;20043;-73
2023/11/11 05:06:05;;;;;;;17.92;2.45;;;;;;;;;;5113980;28;20047;-72
2023/11/11 05:09:09;;;;;;;16.13;3.00;;;;;;;;;;5113815;28;20042;-72
2023/11/11 05:12:14;;;;;;;15.63;3.03;;;;;;;;;;5113683;28;20042;-71
2023/11/11 05:15:23;;;;;;;22.80;2.67;;;;;;;;;;5113651;28;20043;-71
2023/11/11 05:18:27;;;;;;;22.08;3.50;;;;;;;;;;5113818;28;20043;-72
2023/11/11 05:21:32;;;;;;;17.00;3.13;;;;;;;;;;5113510;28;20043;-72
2023/11/11 05:24:36;;;;;;;20.33;3.70;;;;;;;;;;5113140;28;20506;-72
2023/11/11 05:27:41;;;;;;;14.90;3.35;;;;;;;;;;5113573;28;20042;-71
2023/11/11 05:30:48;;;;;;;20.00;3.47;;;;;;;;;;5113108;28;20051;-72
2023/11/11 05:33:52;;;;;;;20.42;3.78;;;;;;;;;;5113562;28;20046;-72
2023/11/11 05:36:58;;;;;;;16.98;3.10;;;;;;;;;;5113183;28;20047;-73
2023/11/11 05:40:06;;;;;;;16.45;3.20;;;;;;;;;;5113235;28;20050;-73
2023/11/11 05:43:10;;;;;;;13.73;2.80;;;;;;;;;;5112321;28;20046;-73
2023/11/11 05:46:15;;;;;;;13.27;3.08;;;;;;;;;;5111973;28;20043;-72
2023/11/11 05:49:19;;;;;;;11.27;3.00;;;;;;;;;;5113009;28;20039;-72
2023/11/11 05:52:23;;;;;;;17.67;3.88;;;;;;;;;;5112839;28;20042;-73
2023/11/11 05:55:29;;;;;;;18.02;4.20;;;;;;;;;;5112842;28;20506;-72
2023/11/11 05:58:32;;;;;;;15.35;3.70;;;;;;;;;;5112674;28;20058;-72
2023/11/11 06:01:44;;;;;;;14.98;3.40;;;13.40;99.90;;;;;;5112879;28;20046;-71
2023/11/11 06:04:49;;;;;;;17.60;4.82;;;;;;;;;;5112238;28;20097;-72
2023/11/11 06:07:54;;;;;;;20.90;3.67;;;;;;;;;;5112531;28;20043;-71
2023/11/11 06:11:02;;;;;;;16.75;3.83;;;12.90;99.90;;;;;;5112808;28;20379;-73
2023/11/11 06:14:07;;;;;;;16.75;3.55;;;;;;;;;;5112499;28;20055;-74
2023/11/11 06:17:11;;;;;;;13.13;4.00;;;;;;;;;;5112726;28;20047;-72
2023/11/11 06:20:15;;;;;;;15.45;3.67;;;;;;;;;;5112476;28;20596;-72
2023/11/11 06:23:19;;;;;;;14.68;3.28;;;;;;;;;;5111725;28;20386;-71
2023/11/11 06:26:24;;;;;;;20.17;4.28;;;;;;;;;;5111227;28;20502;-73
2023/11/11 06:29:28;;;;;;;14.15;3.15;;;;;;;;;;5112079;28;20055;-72
2023/11/11 06:32:33;;;;;;;22.30;6.95;;;;;;;;;;5111956;28;20055;-71
2023/11/11 06:35:37;;;;;;;15.45;4.43;;;;;;;;;;5112236;28;20043;-72
2023/11/11 06:38:41;;;;;;;18.48;4.13;;;;;;;;;;5112208;28;20043;-72
2023/11/11 06:41:46;;;;;;;15.65;4.55;;;;;;;;;;5112301;28;20395;-71
2023/11/11 06:44:50;;;;;;;18.13;4.50;;;;;;;;;;5110968;28;20058;-70
2023/11/11 06:47:55;;;;;;;17.60;4.88;;;;;;;;;;5111917;28;20506;-70
2023/11/11 06:50:59;;;;;;;29.42;10.90;;;;;;;;;;5111799;28;20034;-70
2023/11/11 06:54:04;;;;;;;46.50;21.25;;;;;;;;;;5112442;28;20078;-69
2023/11/11 06:57:09;;;;;;;41.55;15.45;;;;;;;;;;5111549;28;20588;-70
2023/11/11 07:00:18;;;;;;;21.15;9.40;;;;;;;;;;5112140;28;20050;-69
2023/11/11 07:03:23;;;;;;;17.83;6.63;;;;;;;;;;5110798;28;20039;-70
2023/11/11 07:06:27;;;;;;;18.73;5.38;;;;;;;;;;5111490;28;20050;-68
2023/11/11 07:09:31;;;;;;;24.65;5.13;;;;;;;;;;5111790;28;20047;-68
2023/11/11 07:12:35;;;;;;;16.63;4.03;;;;;;;;;;5111677;28;20070;-70
2023/11/11 07:15:41;;;;;;;17.85;3.22;;;;;;;;;;5111452;28;20043;-69
2023/11/11 07:18:46;;;;;;;22.88;4.15;;;;;;;;;;5111440;28;20046;-69
2023/11/11 07:21:50;;;;;;;20.60;4.88;;;;;;;;;;5111275;28;20499;-70
2023/11/11 07:24:54;;;;;;;17.30;3.65;;;;;;;;;;5117001;28;20551;-70
2023/11/11 07:27:59;;;;;;;11.88;3.15;;;;;;;;;;5118068;28;20039;-69
2023/11/11 07:31:03;;;;;;;14.98;3.92;;;;;;;;;;5117807;28;20055;-69
2023/11/11 07:34:08;;;;;;;11.75;3.35;;;;;;;;;;5117771;28;20062;-69
2023/11/11 07:37:12;;;;;;;10.77;2.75;;;;;;;;;;5117830;28;20038;-69
2023/11/11 07:40:16;;;;;;;12.52;3.80;;;;;;;;;;5117651;28;20058;-69
2023/11/11 07:43:20;;;;;;;18.40;3.45;;;;;;;;;;5117317;28;20501;-69
2023/11/11 07:46:25;;;;;;;17.02;4.15;;;;;;;;;;5117674;28;20054;-70
2023/11/11 07:49:29;;;;;;;16.98;3.92;;;;;;;;;;5117429;28;20038;-70
2023/11/11 07:52:33;;;;;;;23.48;4.32;;;;;;;;;;5117155;28;20626;-69
2023/11/11 07:55:38;;;;;;;17.35;3.63;;;;;;;;;;5117664;28;20054;-70
2023/11/11 07:59:08;;;;;;;15.63;3.33;;;;;;;;;;5117112;28;20391;-70
2023/11/11 08:02:15;;;;;;;17.35;4.50;;;;;;;;;;5118085;28;20034;-68
2023/11/11 08:05:19;;;;;;;16.77;4.60;;;;;;;;;;5117313;28;20054;-70
2023/11/11 08:08:24;;;;;;;12.48;3.83;;;;;;;;;;5115325;28;20047;-71
2023/11/11 08:11:28;;;;;;;16.30;3.88;;;;;;;;;;5116088;27;20070;-69
2023/11/11 08:14:32;;;;;;;12.23;4.03;;;;;;;;;;5116839;28;20651;-71
2023/11/11 08:17:37;;;;;;;16.45;4.03;;;;;;;;;;5116970;27;20387;-69
2023/11/11 08:20:44;;;;;;;17.05;3.28;;;;;;;;;;5117306;28;20411;-70
2023/11/11 08:23:48;;;;;;;15.48;3.63;;;;;;;;;;5117259;28;20046;-70
2023/11/11 08:26:56;;;;;;;11.00;3.10;;;;;;;;;;5117701;28;20050;-69
2023/11/11 08:30:00;;;;;;;12.85;3.38;;;;;;;;;;5116422;28;20391;-68
2023/11/11 08:33:04;;;;;;;15.20;3.60;;;;;;;;;;5116213;27;20058;-69
2023/11/11 08:36:09;;;;;;;14.18;3.78;;;;;;;;;;5114679;28;20042;-71
2023/11/11 08:39:13;;;;;;;9.98;3.25;;;;;;;;;;5114148;28;20122;-69
2023/11/11 08:42:18;;;;;;;16.85;3.42;;;;;;;;;;5101691;28;20044;-69
2023/11/11 08:45:22;;;;;;;14.85;3.25;;;;;;;;;;5113845;28;20054;-69
2023/11/11 08:48:30;;;;;;;14.70;3.35;;;;;;;;;;5113632;28;20043;-69
2023/11/11 08:51:34;;;;;;;9.93;3.40;;;;;;;;;;5113896;28;20055;-68
2023/11/11 08:54:39;;;;;;;18.77;4.57;;;;;;;;;;5113845;28;20047;-69
2023/11/11 08:57:43;;;;;;;20.73;5.20;;;;;;;;;;5113619;28;20042;-69
2023/11/11 09:00:47;;;;;;;16.52;4.75;;;;;;;;;;5113850;28;20050;-68
2023/11/11 09:03:52;;;;;;;13.55;4.32;;;;;;;;;;5113622;28;20038;-69
2023/11/11 09:06:57;;;;;;;13.68;4.68;;;;;;;;;;5113768;28;20062;-69
2023/11/11 09:10:03;;;;;;;12.30;4.75;;;;;;;;;;5113640;28;20422;-69
2023/11/11 09:13:10;;;;;;;15.90;4.75;;;;;;;;;;5112837;28;20051;-70
2023/11/11 09:16:15;;;;;;;13.48;4.40;;;;;;;;;;5113366;28;20043;-69
2023/11/11 09:19:19;;;;;;;10.45;4.53;;;;;;;;;;5113361;28;20034;-70
2023/11/11 09:22:25;;;;;;;12.38;4.50;;;;;;;;;;5113124;28;20059;-68
2023/11/11 09:25:29;;;;;;;14.23;4.43;;;;;;;;;;5112798;28;20054;-69
2023/11/11 09:28:34;;;;;;;9.88;3.90;;;;;;;;;;5113554;28;20466;-69
2023/11/11 09:31:39;;;;;;;14.05;4.22;;;;;;;;;;5112957;28;20380;-72
2023/11/11 09:34:48;;;;;;;22.25;6.05;;;;;;;;;;5113353;28;20047;-70
2023/11/11 09:37:52;;;;;;;13.90;4.40;;;;;;;;;;5113114;28;20042;-70
2023/11/11 09:40:56;;;;;;;22.45;4.90;;;;;;;;;;5113267;28;20042;-69
2023/11/11 09:44:01;;;;;;;13.85;5.57;;;;;;;;;;5112791;28;20101;-68
2023/11/11 09:47:06;;;;;;;17.23;5.40;;;;;;;;;;5112584;28;20046;-69
2023/11/11 09:50:13;;;;;;;20.98;5.70;;;16.60;99.90;;;;;;5112241;28;20058;-69
2023/11/11 09:53:18;;;;;;;16.63;5.70;;;19.40;99.90;;;;;;5111885;28;20043;-68
2023/11/11 09:56:24;;;;;;;16.45;5.32;;;;;;;;;;5111984;28;20043;-69
2023/11/11 09:59:28;;;;;;;20.63;6.10;;;;;;;;;;5112388;28;20043;-69
2023/11/11 10:02:32;;;;;;;13.77;4.75;;;;;;;;;;5112270;28;20050;-69
2023/11/11 10:05:37;;;;;;;11.65;4.25;;;;;;;;;;5099232;28;20062;-69
2023/11/11 10:08:43;;;;;;;20.08;6.03;;;;;;;;;;5111537;28;20042;-70
2023/11/11 10:11:49;;;;;;;12.80;3.33;;;;;;;;;;5112454;28;20046;-72
2023/11/11 10:14:53;;;;;;;7.45;2.35;;;;;;;;;;5112174;28;20043;-69
2023/11/11 10:18:00;;;;;;;8.68;2.83;;;19.50;94.90;;;;;;5111283;28;20368;-70
2023/11/11 10:21:06;;;;;;;7.15;1.90;;;;;;;;;;5112266;28;20035;-69
2023/11/11 10:24:11;;;;;;;9.35;2.40;;;;;;;;;;5112173;28;20043;-69
2023/11/11 10:27:15;;;;;;;22.10;2.67;;;;;;;;;;5112339;28;20035;-70
2023/11/11 10:30:20;;;;;;;26.70;3.90;;;20.20;92.80;;;;;;5112261;28;20047;-69
2023/11/11 10:33:26;;;;;;;16.02;2.60;;;20.10;92.70;;;;;;5111973;28;20050;-69
2023/11/11 10:36:44;;;;;;;12.88;2.55;;;19.60;92.30;;;;;;5112094;28;20388;-72
2023/11/11 10:39:49;;;;;;;12.88;2.55;;;;;;;;;;5111911;28;20062;-71
2023/11/11 10:42:54;;;;;;;10.73;2.10;;;;;;;;;;5111793;28;20054;-69
2023/11/11 10:45:58;;;;;;;12.13;2.33;;;;;;;;;;5111248;28;20053;-67
2023/11/11 10:49:09;;;;;;;9.00;2.60;;;20.30;91.70;;;;;;5110573;28;20142;-69
2023/11/11 10:52:14;;;;;;;14.98;2.13;;;;;;;;;;5111804;28;20050;-69
2023/11/11 10:55:26;;;;;;;15.82;2.80;;;20.00;91.80;;;;;;5111287;28;20043;-69
2023/11/11 10:58:38;;;;;;;10.18;2.40;;;18.20;91.60;;;;;;5110765;28;20076;-70
2023/11/11 11:01:42;;;;;;;14.63;2.95;;;;;;;;;;5111421;28;20391;-69
2023/11/11 11:04:53;;;;;;;10.20;2.53;;;19.90;91.90;;;;;;5111095;28;20050;-69
2023/11/11 11:08:18;;;;;;;10.85;2.25;;;19.80;92.20;;;;;;5111110;28;20042;-69
2023/11/11 11:11:31;;;;;;;7.45;1.90;;;19.70;92.10;;;;;;5111413;28;20439;-67
2023/11/11 11:14:35;;;;;;;9.93;2.35;;;;;;;;;;5111009;28;20402;-69
2023/11/11 11:17:51;;;;;;;11.30;2.75;;;19.30;92.30;;;;;;5111368;28;20047;-68
2023/11/11 11:21:02;;;;;;;22.73;2.95;;;19.20;92.20;;;;;;5111251;28;20039;-70
2023/11/11 11:24:10;;;;;;;10.35;2.65;;;19.30;92.50;;;;;;5110950;28;20046;-68
2023/11/11 11:27:14;;;;;;;10.13;2.40;;;;;;;;;;5111168;28;20050;-68
2023/11/11 11:30:23;;;;;;;11.98;2.80;;;19.00;92.90;;;;;;5110208;28;20376;-69
2023/11/11 11:33:41;;;;;;;8.00;2.42;;;19.10;93.00;;;;;;5110984;28;20058;-69
2023/11/11 11:36:54;;;;;;;9.88;2.50;;;19.20;93.20;;;;;;5110746;28;20039;-68
2023/11/11 11:40:08;;;;;;;17.23;2.92;;;19.70;93.30;;;;;;5111215;28;20050;-69
2023/11/11 11:43:23;;;;;;;12.35;2.53;;;19.30;93.00;;;;;;5111011;28;20110;-68
2023/11/11 11:46:28;;;;;;;8.90;2.38;;;;;;;;;;5110898;28;20407;-68
2023/11/11 11:49:34;;;;;;;9.82;2.60;;;20.20;92.90;;;;;;5110870;28;20031;-68
2023/11/11 11:52:41;;;;;;;10.88;2.55;;;;;;;;;;5111366;28;20498;-68
2023/11/11 11:55:47;;;;;;;12.88;3.15;;;;;;;;;;5111452;28;20182;-72
2023/11/11 11:58:51;;;;;;;10.32;2.38;;;;;;;;;;5111095;28;20038;-69
2023/11/11 12:01:55;;;;;;;8.43;2.67;;;;;;;;;;5111127;28;20399;-69
2023/11/11 12:05:09;;;;;;;19.13;3.00;;;19.40;91.80;;;;;;5110068;28;20047;-69
2023/11/11 12:08:13;;;;;;;22.08;2.88;;;;;;;;;;5110324;28;20495;-68
2023/11/11 12:11:32;;;;;;;17.95;2.53;;;19.40;91.30;;;;;;5114490;28;20066;-68
2023/11/11 12:14:36;;;;;;;17.67;2.30;;;19.00;91.70;;;;;;5114656;28;20060;-67
2023/11/11 12:17:42;;;;;;;8.23;2.10;;;;;;;;;;5114960;28;20051;-69
2023/11/11 12:20:47;;;;;;;9.15;2.22;;;;;;;;;;5114428;28;20039;-69
2023/11/11 12:23:51;;;;;;;9.13;1.67;;;;;;;;;;5113561;28;20028;-69
2023/11/11 12:26:58;;;;;;;9.60;2.22;;;18.90;92.00;;;;;;5113398;28;20032;-68
2023/11/11 12:30:22;;;;;;;7.43;2.10;;;18.80;92.00;;;;;;5114228;28;20049;-69
2023/11/11 12:33:26;;;;;;;13.65;3.25;;;;;;;;;;5114491;28;20054;-68
2023/11/11 12:36:31;;;;;;;7.38;1.98;;;;;;;;;;5114192;28;20042;-69
2023/11/11 12:39:51;;;;;;;7.82;2.03;;;19.00;91.60;;;;;;5114252;28;20135;-69
2023/11/11 12:42:56;;;;;;;7.32;1.90;;;18.40;91.30;;;;;;5114054;28;20035;-69
2023/11/11 12:46:01;;;;;;;7.22;2.60;;;;;;;;;;5114023;28;20522;-69
2023/11/11 12:49:06;;;;;;;23.38;9.63;;;;;;;;;;5114207;28;20468;-68
2023/11/11 12:52:14;;;;;;;17.17;3.63;;;19.00;91.70;;;;;;5114336;28;20046;-69
2023/11/11 12:55:21;;;;;;;12.88;3.38;;;18.90;91.30;;;;;;5113861;28;20586;-69
2023/11/11 12:58:27;;;;;;;11.88;2.40;;;19.00;91.30;;;;;;5114001;28;20050;-69
2023/11/11 13:01:31;;;;;;;13.55;2.97;;;;;;;;;;5113256;28;20050;-70
2023/11/11 13:04:36;;;;;;;9.52;2.25;;;;;;;;;;5113680;28;20054;-69
2023/11/11 13:07:42;;;;;;;11.10;2.55;;;;;;;;;;5113668;28;20368;-68
2023/11/11 13:10:46;;;;;;;6.57;1.60;;;;;;;;;;5113817;28;20042;-69
2023/11/11 13:13:51;;;;;;;7.28;1.52;;;;;;;;;;5113654;28;20471;-69
2023/11/11 13:16:55;;;;;;;13.23;2.90;;;;;;;;;;5113814;28;20031;-69
2023/11/11 13:20:02;;;;;;;13.52;2.97;;;;;;;;;;5113663;28;20054;-70
2023/11/11 13:23:06;;;;;;;11.27;2.20;;;;;;;;;;5112558;28;20054;-69
2023/11/11 13:26:11;;;;;;;8.43;2.35;;;;;;;;;;5112451;28;20407;-69
2023/11/11 13:29:15;;;;;;;6.68;1.90;;;;;;;;;;5113193;28;20035;-71
2023/11/11 13:32:21;;;;;;;15.45;4.07;;;;;;;;;;5111384;28;20051;-69
2023/11/11 13:35:26;;;;;;;8.43;2.30;;;;;;;;;;5110958;28;20038;-69
2023/11/11 13:38:31;;;;;;;6.05;1.95;;;;;;;;;;5111266;28;20048;-69
2023/11/11 13:41:38;;;;;;;9.98;2.20;;;;;;;;;;5111566;28;20039;-69
2023/11/11 13:44:42;;;;;;;13.23;2.13;;;;;;;;;;5110821;28;20047;-68
2023/11/11 13:47:47;;;;;;;10.30;2.20;;;;;;;;;;5111811;28;20070;-68
2023/11/11 13:50:53;;;;;;;11.93;2.25;;;;;;;;;;5113034;28;20047;-69
2023/11/11 13:53:59;;;;;;;7.18;1.90;;;;;;;;;;5112841;28;20046;-69
2023/11/11 13:57:03;;;;;;;20.80;4.38;;;;;;;;;;5112969;28;20040;-68
2023/11/11 14:00:29;;;;;;;12.40;2.15;;;18.70;91.90;;;;;;5112949;28;20046;-69
2023/11/11 14:03:34;;;;;;;18.98;3.03;;;;;;;;;;5112346;28;20059;-69
2023/11/11 14:06:38;;;;;;;23.90;3.33;;;;;;;;;;5112738;28;20050;-69
2023/11/11 14:09:42;;;;;;;11.77;2.20;;;;;;;;;;5112652;28;20499;-68
2023/11/11 14:12:48;;;;;;;6.70;1.80;;;;;;;;;;5111569;28;20403;-68
2023/11/11 14:15:52;;;;;;;12.45;2.83;;;;;;;;;;5112210;28;20368;-69
2023/11/11 14:18:57;;;;;;;15.30;3.70;;;;;;;;;;5112527;28;20047;-68
2023/11/11 14:22:01;;;;;;;10.27;3.70;;;;;;;;;;5112398;28;20042;-69
2023/11/11 14:25:09;;;;;;;18.25;2.85;;;;;;;;;;5112025;28;20054;-69
2023/11/11 14:28:13;;;;;;;14.98;2.55;;;;;;;;;;5111887;28;20047;-70
2023/11/11 14:31:18;;;;;;;15.05;2.70;;;;;;;;;;5111427;28;20051;-70
2023/11/11 14:34:23;;;;;;;11.10;2.67;;;;;;;;;;5109834;28;20039;-69
2023/11/11 14:37:27;;;;;;;9.57;2.80;;;;;;;;;;5110621;28;20050;-69
2023/11/11 14:40:34;;;;;;;15.52;2.72;;;;;;;;;;5110880;28;20040;-68
2023/11/11 14:43:39;;;;;;;18.10;2.72;;;;;;;;;;5111532;28;20054;-71
2023/11/11 14:46:44;;;;;;;10.20;2.55;;;;;;;;;;5110110;28;20058;-71
2023/11/11 14:49:48;;;;;;;10.52;2.20;;;;;;;;;;5110458;28;20047;-71
2023/11/11 14:52:53;;;;;;;15.30;3.60;;;;;;;;;;5110049;28;20056;-70
2023/11/11 14:55:57;;;;;;;17.25;2.85;;;;;;;;;;5110144;28;20046;-71
2023/11/11 14:59:02;;;;;;;25.27;2.80;;;;;;;;;;5110774;28;20046;-71
2023/11/11 15:02:07;;;;;;;20.25;3.40;;;;;;;;;;5110677;28;20509;-70
2023/11/11 15:05:14;;;;;;;17.15;3.42;;;;;;;;;;5111266;28;20058;-71
2023/11/11 15:08:18;;;;;;;23.08;3.20;;;;;;;;;;5111601;28;20038;-71
2023/11/11 15:11:25;;;;;;;18.92;4.07;;;;;;;;;;5111674;28;20042;-72
2023/11/11 15:14:29;;;;;;;21.92;4.20;;;;;;;;;;5111163;28;20038;-71
2023/11/11 15:17:34;;;;;;;17.50;3.35;;;18.00;94.70;;;;;;5111510;28;20046;-71
2023/11/11 15:20:38;;;;;;;19.55;3.20;;;;;;;;;;5111548;28;20383;-71
2023/11/11 15:23:45;;;;;;;16.65;3.15;;;;;;;;;;5111011;28;20039;-70
2023/11/11 15:27:08;;;;;;;16.75;2.80;;;;;;;;;;5111030;28;20050;-72
2023/11/11 15:30:18;;;;;;;22.83;3.05;;;17.80;94.90;;;;;;5111158;28;20038;-70
2023/11/11 15:33:26;;;;;;;23.70;3.65;;;;;;;;;;5111213;28;20399;-71
2023/11/11 15:36:31;;;;;;;25.20;3.85;;;;;;;;;;5111397;28;20370;-71
2023/11/11 15:39:35;;;;;;;23.67;3.65;;;;;;;;;;5111072;28;20058;-70
2023/11/11 15:42:40;;;;;;;26.17;4.22;;;;;;;;;;5111177;28;20038;-71
2023/11/11 15:45:44;;;;;;;19.40;4.82;;;;;;;;;;5113670;28;20595;-71
2023/11/11 15:48:48;;;;;;;15.43;3.30;;;;;;;;;;5115275;28;20054;-70
2023/11/11 15:51:54;;;;;;;19.48;3.78;;;18.70;95.10;;;;;;5115152;28;20042;-70
2023/11/11 15:54:58;;;;;;;18.85;4.05;;;;;;;;;;5114591;28;20042;-70
2023/11/11 15:58:05;;;;;;;22.35;2.90;;;;;;;;;;5114343;28;20050;-70
2023/11/11 16:01:14;;;;;;;22.75;6.30;;;17.50;94.20;;;;;;5113285;28;20046;-70
2023/11/11 16:04:19;;;;;;;26.05;4.80;;;;;;;;;;5113707;28;20490;-70
2023/11/11 16:07:24;;;;;;;19.05;3.70;;;;;;;;;;5113836;28;20598;-70
2023/11/11 16:10:29;;;;;;;29.58;4.35;;;;;;;;;;5112958;28;20383;-70
2023/11/11 16:13:34;;;;;;;23.15;4.10;;;;;;;;;;5114426;28;20046;-71
2023/11/11 16:16:39;;;;;;;24.33;4.13;;;;;;;;;;5114885;28;20364;-70
2023/11/11 16:19:49;;;;;;;20.05;4.68;;;;;;;;;;5114625;28;20046;-69
2023/11/11 16:22:53;;;;;;;20.25;5.13;;;;;;;;;;5114448;28;20045;-70
2023/11/11 16:26:00;;;;;;;20.75;3.70;;;19.70;94.30;;;;;;5114610;28;20411;-70
2023/11/11 16:29:06;;;;;;;17.88;3.95;;;;;;;;;;5114683;28;20038;-68
2023/11/11 16:32:10;;;;;;;29.13;5.53;;;;;;;;;;5114133;28;20066;-70
2023/11/11 16:35:14;;;;;;;26.52;5.22;;;;;;;;;;5114562;28;20379;-69
2023/11/11 16:38:21;;;;;;;25.02;5.50;;;;;;;;;;5114292;28;20101;-70
2023/11/11 16:41:25;;;;;;;34.45;5.25;;;;;;;;;;5114463;28;20038;-68
2023/11/11 16:44:29;;;;;;;37.45;7.03;;;;;;;;;;5113963;28;20405;-70
2023/11/11 16:47:34;;;;;;;29.30;6.68;;;;;;;;;;5114220;28;20058;-70
2023/11/11 16:50:39;;;;;;;32.13;6.30;;;;;;;;;;5114145;28;20042;-70
2023/11/11 16:53:43;;;;;;;36.03;5.10;;;;;;;;;;5114203;28;20047;-69
2023/11/11 16:56:48;;;;;;;42.08;7.05;;;;;;;;;;5112374;28;20099;-70
2023/11/11 16:59:54;;;;;;;27.92;5.88;;;;;;;;;;5114123;28;20050;-70
2023/11/11 17:03:00;;;;;;;31.20;5.60;;;;;;;;;;5114218;28;20047;-70
2023/11/11 17:06:08;;;;;;;40.50;6.38;;;;;;;;;;5113701;28;20050;-70
2023/11/11 17:09:13;;;;;;;36.88;6.43;;;;;;;;;;5113690;28;20043;-70
2023/11/11 17:12:17;;;;;;;32.40;6.05;;;;;;;;;;5113784;28;20047;-70
2023/11/11 17:15:22;;;;;;;33.83;6.32;;;;;;;;;;5113474;28;20039;-70
2023/11/11 17:18:26;;;;;;;28.38;5.93;;;;;;;;;;5113401;28;20045;-70
2023/11/11 17:21:31;;;;;;;25.90;4.72;;;;;;;;;;5113331;28;20042;-70
2023/11/11 17:24:36;;;;;;;35.83;6.15;;;16.30;96.00;;;;;;5112251;28;20138;-70
2023/11/11 17:27:41;;;;;;;34.63;6.38;;;;;;;;;;5113557;28;20547;-70
2023/11/11 17:30:45;;;;;;;34.50;8.23;;;;;;;;;;5112982;28;20043;-70
2023/11/11 17:33:52;;;;;;;31.40;7.35;;;;;;;;;;5112690;28;20047;-70
2023/11/11 17:36:57;;;;;;;38.05;9.55;;;;;;;;;;5113113;28;20510;-69
2023/11/11 17:40:01;;;;;;;39.05;11.32;;;;;;;;;;5112885;28;20046;-69
2023/11/11 17:43:08;;;;;;;35.10;9.60;;;;;;;;;;5113083;28;20042;-70
2023/11/11 17:46:22;;;;;;;36.10;7.88;;;15.60;97.60;;;;;;5112403;28;20051;-70
2023/11/11 17:49:27;;;;;;;22.13;6.07;;;;;;;;;;5111929;28;20055;-71
2023/11/11 17:52:31;;;;;;;26.00;6.60;;;;;;;;;;5112569;28;20039;-71
2023/11/11 17:55:35;;;;;;;31.98;7.75;;;;;;;;;;5112427;28;20043;-70
2023/11/11 17:58:40;;;;;;;27.83;8.57;;;;;;;;;;5112436;28;20043;-70